sensor_id;sensor_type;location;lat;lon;timestamp;temperature;humidity
21682;DHT22;11002;48.256;10.084;2022-09-14T00:00:00;19.40;45.20
21682;DHT22;11002;48.256;10.084;2022-09-14T00:02:35;19.40;45.20
21682;DHT22;11002;48.256;10.084;2022-09-14T00:05:03;19.40;45.30
21682;DHT22;11002;48.256;10.084;2022-09-14T00:07:30;19.40;45.20
21682;DHT22;11002;48.256;10.084;2022-09-14T00:09:58;19.40;45.30
21682;DHT22;11002;48.256;10.084;2022-09-14T00:12:25;19.40;45.20
21682;DHT22;11002;48.256;10.084;2022-09-14T00:14:54;19.40;45.90
21682;DHT22;11002;48.256;10.084;2022-09-14T00:17:22;19.40;45.20
21682;DHT22;11002;48.256;10.084;2022-09-14T00:19:49;19.40;45.30
21682;DHT22;11002;48.256;10.084;2022-09-14T00:22:18;19.40;45.30
21682;DHT22;11002;48.256;10.084;2022-09-14T00:24:45;19.40;45.30
21682;DHT22;11002;48.256;10.084;2022-09-14T00:27:13;19.40;45.30
21682;DHT22;11002;48.256;10.084;2022-09-14T00:29:40;19.40;45.30
21682;DHT22;11002;48.256;10.084;2022-09-14T00:32:09;19.40;45.30
21682;DHT22;11002;48.256;10.084;2022-09-14T00:34:36;19.40;45.30
21682;DHT22;11002;48.256;10.084;2022-09-14T00:37:04;19.40;45.30
21682;DHT22;11002;48.256;10.084;2022-09-14T00:39:31;19.40;45.30
21682;DHT22;11002;48.256;10.084;2022-09-14T00:41:58;19.40;45.30
21682;DHT22;11002;48.256;10.084;2022-09-14T00:45:06;19.40;45.30
21682;DHT22;11002;48.256;10.084;2022-09-14T00:47:40;19.40;45.30
21682;DHT22;11002;48.256;10.084;2022-09-14T00:50:08;19.40;45.20
21682;DHT22;11002;48.256;10.084;2022-09-14T00:52:39;19.40;45.30
21682;DHT22;11002;48.256;10.084;2022-09-14T00:55:09;19.40;45.30
21682;DHT22;11002;48.256;10.084;2022-09-14T00:57:40;19.40;45.30
21682;DHT22;11002;48.256;10.084;2022-09-14T01:00:10;19.40;45.30
21682;DHT22;11002;48.256;10.084;2022-09-14T01:02:40;19.40;45.30
21682;DHT22;11002;48.256;10.084;2022-09-14T01:05:08;19.40;45.30
21682;DHT22;11002;48.256;10.084;2022-09-14T01:07:53;19.40;45.30
21682;DHT22;11002;48.256;10.084;2022-09-14T01:10:35;19.40;45.30
21682;DHT22;11002;48.256;10.084;2022-09-14T01:13:16;19.40;45.20
21682;DHT22;11002;48.256;10.084;2022-09-14T01:15:54;19.40;45.30
21682;DHT22;11002;48.256;10.084;2022-09-14T01:18:28;19.40;45.30
21682;DHT22;11002;48.256;10.084;2022-09-14T01:20:59;19.40;45.30
21682;DHT22;11002;48.256;10.084;2022-09-14T01:23:34;19.40;45.30
21682;DHT22;11002;48.256;10.084;2022-09-14T01:26:25;19.40;45.30
21682;DHT22;11002;48.256;10.084;2022-09-14T01:29:01;19.40;45.30
21682;DHT22;11002;48.256;10.084;2022-09-14T01:31:37;19.30;45.20
21682;DHT22;11002;48.256;10.084;2022-09-14T01:34:11;19.30;45.20
21682;DHT22;11002;48.256;10.084;2022-09-14T01:36:41;19.40;45.30
21682;DHT22;11002;48.256;10.084;2022-09-14T01:39:10;19.40;45.30
21682;DHT22;11002;48.256;10.084;2022-09-14T01:41:39;19.40;45.40
21682;DHT22;11002;48.256;10.084;2022-09-14T01:44:10;19.40;45.40
21682;DHT22;11002;48.256;10.084;2022-09-14T01:46:43;19.40;45.30
21682;DHT22;11002;48.256;10.084;2022-09-14T01:49:15;19.40;45.40
21682;DHT22;11002;48.256;10.084;2022-09-14T01:51:46;19.40;45.30
21682;DHT22;11002;48.256;10.084;2022-09-14T01:54:22;19.40;45.30
21682;DHT22;11002;48.256;10.084;2022-09-14T01:56:54;19.30;45.20
21682;DHT22;11002;48.256;10.084;2022-09-14T01:59:26;19.40;45.40
21682;DHT22;11002;48.256;10.084;2022-09-14T02:01:56;19.40;45.40
21682;DHT22;11002;48.256;10.084;2022-09-14T02:04:30;19.40;45.40
21682;DHT22;11002;48.256;10.084;2022-09-14T02:07:00;19.40;45.40
21682;DHT22;11002;48.256;10.084;2022-09-14T02:09:28;19.40;45.40
21682;DHT22;11002;48.256;10.084;2022-09-14T02:11:55;19.40;45.40
21682;DHT22;11002;48.256;10.084;2022-09-14T02:14:27;19.40;45.40
21682;DHT22;11002;48.256;10.084;2022-09-14T02:16:55;19.30;45.30
21682;DHT22;11002;48.256;10.084;2022-09-14T02:19:22;19.40;45.40
21682;DHT22;11002;48.256;10.084;2022-09-14T02:21:50;19.40;45.40
21682;DHT22;11002;48.256;10.084;2022-09-14T02:24:18;19.30;45.30
21682;DHT22;11002;48.256;10.084;2022-09-14T02:26:47;19.40;45.40
21682;DHT22;11002;48.256;10.084;2022-09-14T02:29:15;19.40;45.40
21682;DHT22;11002;48.256;10.084;2022-09-14T02:32:01;19.40;45.40
21682;DHT22;11002;48.256;10.084;2022-09-14T02:34:35;19.40;45.40
21682;DHT22;11002;48.256;10.084;2022-09-14T02:37:09;19.40;45.30
21682;DHT22;11002;48.256;10.084;2022-09-14T02:39:44;19.40;45.40
21682;DHT22;11002;48.256;10.084;2022-09-14T02:42:22;19.40;45.40
21682;DHT22;11002;48.256;10.084;2022-09-14T02:44:58;19.40;45.40
21682;DHT22;11002;48.256;10.084;2022-09-14T02:47:33;19.30;45.30
21682;DHT22;11002;48.256;10.084;2022-09-14T02:50:09;19.40;45.40
21682;DHT22;11002;48.256;10.084;2022-09-14T02:52:46;19.40;45.40
21682;DHT22;11002;48.256;10.084;2022-09-14T02:55:17;19.40;45.40
21682;DHT22;11002;48.256;10.084;2022-09-14T02:57:59;19.40;45.40
21682;DHT22;11002;48.256;10.084;2022-09-14T03:00:28;19.40;45.40
21682;DHT22;11002;48.256;10.084;2022-09-14T03:02:57;19.40;45.50
21682;DHT22;11002;48.256;10.084;2022-09-14T03:05:25;19.40;45.50
21682;DHT22;11002;48.256;10.084;2022-09-14T03:07:52;19.40;45.40
21682;DHT22;11002;48.256;10.084;2022-09-14T03:10:19;19.40;45.40
21682;DHT22;11002;48.256;10.084;2022-09-14T03:12:47;19.40;45.40
21682;DHT22;11002;48.256;10.084;2022-09-14T03:15:14;19.30;45.30
21682;DHT22;11002;48.256;10.084;2022-09-14T03:17:44;19.40;45.40
21682;DHT22;11002;48.256;10.084;2022-09-14T03:20:14;19.40;45.40
21682;DHT22;11002;48.256;10.084;2022-09-14T03:22:41;19.40;45.40
21682;DHT22;11002;48.256;10.084;2022-09-14T03:25:09;19.40;45.40
21682;DHT22;11002;48.256;10.084;2022-09-14T03:27:36;19.30;45.30
21682;DHT22;11002;48.256;10.084;2022-09-14T03:30:05;19.40;45.40
21682;DHT22;11002;48.256;10.084;2022-09-14T03:32:33;19.40;45.40
21682;DHT22;11002;48.256;10.084;2022-09-14T03:35:01;19.40;45.40
21682;DHT22;11002;48.256;10.084;2022-09-14T03:37:29;19.40;45.40
21682;DHT22;11002;48.256;10.084;2022-09-14T03:39:57;19.40;45.40
21682;DHT22;11002;48.256;10.084;2022-09-14T03:42:24;19.40;45.40
21682;DHT22;11002;48.256;10.084;2022-09-14T03:44:51;19.40;45.40
21682;DHT22;11002;48.256;10.084;2022-09-14T03:47:19;19.40;45.40
21682;DHT22;11002;48.256;10.084;2022-09-14T03:49:46;19.40;45.40
21682;DHT22;11002;48.256;10.084;2022-09-14T03:52:13;19.40;45.40
21682;DHT22;11002;48.256;10.084;2022-09-14T03:54:42;19.40;45.40
21682;DHT22;11002;48.256;10.084;2022-09-14T03:57:09;19.40;45.40
21682;DHT22;11002;48.256;10.084;2022-09-14T03:59:36;19.40;45.40
21682;DHT22;11002;48.256;10.084;2022-09-14T04:02:04;19.40;45.40
21682;DHT22;11002;48.256;10.084;2022-09-14T04:04:31;19.40;45.40
21682;DHT22;11002;48.256;10.084;2022-09-14T04:06:58;19.40;45.40
21682;DHT22;11002;48.256;10.084;2022-09-14T04:09:25;19.40;45.40
21682;DHT22;11002;48.256;10.084;2022-09-14T04:11:54;19.40;45.40
21682;DHT22;11002;48.256;10.084;2022-09-14T04:14:22;19.40;45.50
21682;DHT22;11002;48.256;10.084;2022-09-14T04:16:50;19.40;45.50
21682;DHT22;11002;48.256;10.084;2022-09-14T04:19:17;19.40;45.50
21682;DHT22;11002;48.256;10.084;2022-09-14T04:21:45;19.40;45.40
21682;DHT22;11002;48.256;10.084;2022-09-14T04:24:12;19.40;45.40
21682;DHT22;11002;48.256;10.084;2022-09-14T04:26:40;19.30;45.30
21682;DHT22;11002;48.256;10.084;2022-09-14T04:29:09;19.40;45.40
21682;DHT22;11002;48.256;10.084;2022-09-14T04:31:37;19.40;45.80
21682;DHT22;11002;48.256;10.084;2022-09-14T04:34:05;19.40;45.40
21682;DHT22;11002;48.256;10.084;2022-09-14T04:36:32;19.40;45.50
21682;DHT22;11002;48.256;10.084;2022-09-14T04:39:02;19.40;45.40
21682;DHT22;11002;48.256;10.084;2022-09-14T04:41:31;19.40;45.50
21682;DHT22;11002;48.256;10.084;2022-09-14T04:43:59;19.40;45.50
21682;DHT22;11002;48.256;10.084;2022-09-14T04:46:30;19.30;45.40
21682;DHT22;11002;48.256;10.084;2022-09-14T04:48:57;19.40;45.50
21682;DHT22;11002;48.256;10.084;2022-09-14T04:51:27;19.40;45.40
21682;DHT22;11002;48.256;10.084;2022-09-14T04:53:56;19.40;45.50
21682;DHT22;11002;48.256;10.084;2022-09-14T04:56:25;19.40;45.50
21682;DHT22;11002;48.256;10.084;2022-09-14T04:58:55;19.40;45.50
21682;DHT22;11002;48.256;10.084;2022-09-14T05:01:25;19.40;45.50
21682;DHT22;11002;48.256;10.084;2022-09-14T05:03:54;19.40;45.50
21682;DHT22;11002;48.256;10.084;2022-09-14T05:06:24;19.40;45.50
21682;DHT22;11002;48.256;10.084;2022-09-14T05:08:52;19.40;45.50
21682;DHT22;11002;48.256;10.084;2022-09-14T05:11:21;19.30;45.40
21682;DHT22;11002;48.256;10.084;2022-09-14T05:13:49;19.40;45.60
21682;DHT22;11002;48.256;10.084;2022-09-14T05:16:19;19.40;45.50
21682;DHT22;11002;48.256;10.084;2022-09-14T05:18:47;19.30;45.40
21682;DHT22;11002;48.256;10.084;2022-09-14T05:21:18;19.40;45.50
21682;DHT22;11002;48.256;10.084;2022-09-14T05:23:46;19.30;45.40
21682;DHT22;11002;48.256;10.084;2022-09-14T05:26:14;19.40;45.50
21682;DHT22;11002;48.256;10.084;2022-09-14T05:28:41;19.40;45.50
21682;DHT22;11002;48.256;10.084;2022-09-14T05:31:10;19.40;45.50
21682;DHT22;11002;48.256;10.084;2022-09-14T05:33:37;19.30;45.50
21682;DHT22;11002;48.256;10.084;2022-09-14T05:36:07;19.30;45.50
21682;DHT22;11002;48.256;10.084;2022-09-14T05:38:37;19.40;45.60
21682;DHT22;11002;48.256;10.084;2022-09-14T05:41:06;19.40;45.60
21682;DHT22;11002;48.256;10.084;2022-09-14T05:43:33;19.30;45.50
21682;DHT22;11002;48.256;10.084;2022-09-14T05:46:02;19.30;45.50
21682;DHT22;11002;48.256;10.084;2022-09-14T05:48:30;19.30;45.50
21682;DHT22;11002;48.256;10.084;2022-09-14T05:50:58;19.30;45.50
21682;DHT22;11002;48.256;10.084;2022-09-14T05:53:26;19.30;45.50
21682;DHT22;11002;48.256;10.084;2022-09-14T05:56:03;19.30;45.50
21682;DHT22;11002;48.256;10.084;2022-09-14T05:58:31;19.30;45.40
21682;DHT22;11002;48.256;10.084;2022-09-14T06:01:00;19.30;45.50
21682;DHT22;11002;48.256;10.084;2022-09-14T06:03:31;19.30;45.40
21682;DHT22;11002;48.256;10.084;2022-09-14T06:05:59;19.30;45.50
21682;DHT22;11002;48.256;10.084;2022-09-14T06:08:26;19.30;45.50
21682;DHT22;11002;48.256;10.084;2022-09-14T06:10:54;19.30;45.50
21682;DHT22;11002;48.256;10.084;2022-09-14T06:13:22;19.30;45.50
21682;DHT22;11002;48.256;10.084;2022-09-14T06:15:50;19.30;45.50
21682;DHT22;11002;48.256;10.084;2022-09-14T06:18:17;19.30;45.50
21682;DHT22;11002;48.256;10.084;2022-09-14T06:20:51;19.30;45.50
21682;DHT22;11002;48.256;10.084;2022-09-14T06:23:18;19.30;45.50
21682;DHT22;11002;48.256;10.084;2022-09-14T06:25:46;19.30;45.50
21682;DHT22;11002;48.256;10.084;2022-09-14T06:28:13;19.30;45.50
21682;DHT22;11002;48.256;10.084;2022-09-14T06:30:43;19.30;45.50
21682;DHT22;11002;48.256;10.084;2022-09-14T06:33:10;19.40;45.60
21682;DHT22;11002;48.256;10.084;2022-09-14T06:35:38;19.30;45.40
21682;DHT22;11002;48.256;10.084;2022-09-14T06:38:07;19.30;45.50
21682;DHT22;11002;48.256;10.084;2022-09-14T06:40:36;19.40;45.60
21682;DHT22;11002;48.256;10.084;2022-09-14T06:43:04;19.30;45.80
21682;DHT22;11002;48.256;10.084;2022-09-14T06:45:31;19.30;45.50
21682;DHT22;11002;48.256;10.084;2022-09-14T06:48:00;19.30;45.50
21682;DHT22;11002;48.256;10.084;2022-09-14T06:50:27;19.30;45.40
21682;DHT22;11002;48.256;10.084;2022-09-14T06:52:55;19.30;45.50
21682;DHT22;11002;48.256;10.084;2022-09-14T06:55:22;19.30;45.50
21682;DHT22;11002;48.256;10.084;2022-09-14T06:57:49;19.30;45.50
21682;DHT22;11002;48.256;10.084;2022-09-14T07:00:17;19.30;45.50
21682;DHT22;11002;48.256;10.084;2022-09-14T07:02:44;19.40;45.60
21682;DHT22;11002;48.256;10.084;2022-09-14T07:05:13;19.30;45.40
21682;DHT22;11002;48.256;10.084;2022-09-14T07:07:44;19.30;45.40
21682;DHT22;11002;48.256;10.084;2022-09-14T07:10:11;19.30;45.50
21682;DHT22;11002;48.256;10.084;2022-09-14T07:12:38;19.30;45.40
21682;DHT22;11002;48.256;10.084;2022-09-14T07:15:07;19.30;45.50
21682;DHT22;11002;48.256;10.084;2022-09-14T07:17:35;19.40;45.50
21682;DHT22;11002;48.256;10.084;2022-09-14T07:20:02;19.30;45.50
21682;DHT22;11002;48.256;10.084;2022-09-14T07:22:33;19.30;45.50
21682;DHT22;11002;48.256;10.084;2022-09-14T07:25:01;19.30;45.50
21682;DHT22;11002;48.256;10.084;2022-09-14T07:27:28;19.30;45.40
21682;DHT22;11002;48.256;10.084;2022-09-14T07:29:55;19.40;45.50
21682;DHT22;11002;48.256;10.084;2022-09-14T07:32:23;19.30;45.50
21682;DHT22;11002;48.256;10.084;2022-09-14T07:34:50;19.30;45.40
21682;DHT22;11002;48.256;10.084;2022-09-14T07:37:17;19.40;45.60
21682;DHT22;11002;48.256;10.084;2022-09-14T07:39:46;19.40;45.50
21682;DHT22;11002;48.256;10.084;2022-09-14T07:42:13;19.30;45.40
21682;DHT22;11002;48.256;10.084;2022-09-14T07:44:41;19.40;45.50
21682;DHT22;11002;48.256;10.084;2022-09-14T07:47:08;19.30;45.50
21682;DHT22;11002;48.256;10.084;2022-09-14T07:49:35;19.40;45.60
21682;DHT22;11002;48.256;10.084;2022-09-14T07:52:03;19.30;45.50
21682;DHT22;11002;48.256;10.084;2022-09-14T07:54:30;19.30;45.50
21682;DHT22;11002;48.256;10.084;2022-09-14T07:57:01;19.30;45.40
21682;DHT22;11002;48.256;10.084;2022-09-14T07:59:29;19.40;45.60
21682;DHT22;11002;48.256;10.084;2022-09-14T08:01:56;19.30;45.50
21682;DHT22;11002;48.256;10.084;2022-09-14T08:04:23;19.30;45.50
21682;DHT22;11002;48.256;10.084;2022-09-14T08:06:50;19.30;45.60
21682;DHT22;11002;48.256;10.084;2022-09-14T08:09:18;19.30;45.60
21682;DHT22;11002;48.256;10.084;2022-09-14T08:11:45;19.30;45.50
21682;DHT22;11002;48.256;10.084;2022-09-14T08:14:13;19.30;45.60
21682;DHT22;11002;48.256;10.084;2022-09-14T08:16:41;19.30;45.60
21682;DHT22;11002;48.256;10.084;2022-09-14T08:19:12;19.30;45.60
21682;DHT22;11002;48.256;10.084;2022-09-14T08:21:40;19.30;45.60
21682;DHT22;11002;48.256;10.084;2022-09-14T08:24:10;19.30;45.70
21682;DHT22;11002;48.256;10.084;2022-09-14T08:26:38;19.30;45.70
21682;DHT22;11002;48.256;10.084;2022-09-14T08:29:06;19.40;45.80
21682;DHT22;11002;48.256;10.084;2022-09-14T08:31:37;19.30;45.70
21682;DHT22;11002;48.256;10.084;2022-09-14T08:34:05;19.30;45.70
21682;DHT22;11002;48.256;10.084;2022-09-14T08:36:34;19.40;45.80
21682;DHT22;11002;48.256;10.084;2022-09-14T08:39:02;19.30;45.70
21682;DHT22;11002;48.256;10.084;2022-09-14T08:41:34;19.30;45.80
21682;DHT22;11002;48.256;10.084;2022-09-14T08:44:11;19.30;45.80
21682;DHT22;11002;48.256;10.084;2022-09-14T08:46:42;19.30;45.80
21682;DHT22;11002;48.256;10.084;2022-09-14T08:49:14;19.30;45.80
21682;DHT22;11002;48.256;10.084;2022-09-14T08:51:45;19.30;45.90
21682;DHT22;11002;48.256;10.084;2022-09-14T08:54:13;19.30;45.90
21682;DHT22;11002;48.256;10.084;2022-09-14T08:56:43;19.30;46.00
21682;DHT22;11002;48.256;10.084;2022-09-14T08:59:28;19.30;46.10
21682;DHT22;11002;48.256;10.084;2022-09-14T09:02:10;19.30;46.10
21682;DHT22;11002;48.256;10.084;2022-09-14T09:04:50;19.40;46.30
21682;DHT22;11002;48.256;10.084;2022-09-14T09:07:25;19.30;46.10
21682;DHT22;11002;48.256;10.084;2022-09-14T09:09:57;19.30;46.10
21682;DHT22;11002;48.256;10.084;2022-09-14T09:12:36;19.40;46.20
21682;DHT22;11002;48.256;10.084;2022-09-14T09:15:13;19.30;46.10
21682;DHT22;11002;48.256;10.084;2022-09-14T09:17:45;19.40;46.20
21682;DHT22;11002;48.256;10.084;2022-09-14T09:20:15;19.40;46.10
21682;DHT22;11002;48.256;10.084;2022-09-14T09:22:46;19.40;46.10
21682;DHT22;11002;48.256;10.084;2022-09-14T09:25:19;19.40;46.10
21682;DHT22;11002;48.256;10.084;2022-09-14T09:27:48;19.40;46.10
21682;DHT22;11002;48.256;10.084;2022-09-14T09:30:16;19.40;46.10
21682;DHT22;11002;48.256;10.084;2022-09-14T09:32:45;19.40;46.10
21682;DHT22;11002;48.256;10.084;2022-09-14T09:35:33;19.40;46.10
21682;DHT22;11002;48.256;10.084;2022-09-14T09:38:13;19.40;46.00
21682;DHT22;11002;48.256;10.084;2022-09-14T09:40:44;19.40;46.00
21682;DHT22;11002;48.256;10.084;2022-09-14T09:43:15;19.40;46.20
21682;DHT22;11002;48.256;10.084;2022-09-14T09:45:53;19.40;46.40
21682;DHT22;11002;48.256;10.084;2022-09-14T09:48:27;19.40;46.30
21682;DHT22;11002;48.256;10.084;2022-09-14T09:51:02;19.40;46.30
21682;DHT22;11002;48.256;10.084;2022-09-14T09:53:30;19.40;46.20
21682;DHT22;11002;48.256;10.084;2022-09-14T09:55:58;19.40;46.20
21682;DHT22;11002;48.256;10.084;2022-09-14T09:58:29;19.40;46.00
21682;DHT22;11002;48.256;10.084;2022-09-14T10:00:58;19.40;46.10
21682;DHT22;11002;48.256;10.084;2022-09-14T10:03:32;19.40;46.20
21682;DHT22;11002;48.256;10.084;2022-09-14T10:06:01;19.40;46.20
21682;DHT22;11002;48.256;10.084;2022-09-14T10:08:30;19.40;46.20
21682;DHT22;11002;48.256;10.084;2022-09-14T10:11:01;19.40;46.20
21682;DHT22;11002;48.256;10.084;2022-09-14T10:13:31;19.40;46.90
21682;DHT22;11002;48.256;10.084;2022-09-14T10:16:07;19.40;46.10
21682;DHT22;11002;48.256;10.084;2022-09-14T10:18:43;19.40;46.10
21682;DHT22;11002;48.256;10.084;2022-09-14T10:21:15;19.40;46.00
21682;DHT22;11002;48.256;10.084;2022-09-14T10:23:45;19.40;46.10
21682;DHT22;11002;48.256;10.084;2022-09-14T10:26:26;19.40;46.10
21682;DHT22;11002;48.256;10.084;2022-09-14T10:29:27;19.40;46.10
21682;DHT22;11002;48.256;10.084;2022-09-14T10:31:59;19.40;46.10
21682;DHT22;11002;48.256;10.084;2022-09-14T10:34:31;19.40;46.00
21682;DHT22;11002;48.256;10.084;2022-09-14T10:37:12;19.40;46.00
21682;DHT22;11002;48.256;10.084;2022-09-14T10:39:45;19.40;46.00
21682;DHT22;11002;48.256;10.084;2022-09-14T10:42:19;19.40;46.00
21682;DHT22;11002;48.256;10.084;2022-09-14T10:45:05;19.40;46.00
21682;DHT22;11002;48.256;10.084;2022-09-14T10:48:04;19.40;46.00
21682;DHT22;11002;48.256;10.084;2022-09-14T10:50:50;19.40;46.00
21682;DHT22;11002;48.256;10.084;2022-09-14T10:53:32;19.40;45.90
21682;DHT22;11002;48.256;10.084;2022-09-14T10:56:05;19.40;45.90
21682;DHT22;11002;48.256;10.084;2022-09-14T10:58:55;19.40;45.90
21682;DHT22;11002;48.256;10.084;2022-09-14T11:01:36;19.40;46.00
21682;DHT22;11002;48.256;10.084;2022-09-14T11:04:20;19.40;46.00
21682;DHT22;11002;48.256;10.084;2022-09-14T11:06:55;19.40;46.00
21682;DHT22;11002;48.256;10.084;2022-09-14T11:09:29;19.40;46.10
21682;DHT22;11002;48.256;10.084;2022-09-14T11:12:04;19.40;46.00
21682;DHT22;11002;48.256;10.084;2022-09-14T11:14:45;19.40;46.10
21682;DHT22;11002;48.256;10.084;2022-09-14T11:20:25;19.40;46.20
21682;DHT22;11002;48.256;10.084;2022-09-14T11:23:10;19.40;46.10
21682;DHT22;11002;48.256;10.084;2022-09-14T11:25:44;19.40;46.20
21682;DHT22;11002;48.256;10.084;2022-09-14T11:28:16;19.40;46.30
21682;DHT22;11002;48.256;10.084;2022-09-14T11:30:48;19.40;46.30
21682;DHT22;11002;48.256;10.084;2022-09-14T11:33:21;19.40;46.30
21682;DHT22;11002;48.256;10.084;2022-09-14T11:35:53;19.40;47.00
21682;DHT22;11002;48.256;10.084;2022-09-14T11:38:27;19.40;46.30
21682;DHT22;11002;48.256;10.084;2022-09-14T11:40:58;19.40;46.40
21682;DHT22;11002;48.256;10.084;2022-09-14T11:43:29;19.40;46.30
21682;DHT22;11002;48.256;10.084;2022-09-14T11:46:07;19.40;46.40
21682;DHT22;11002;48.256;10.084;2022-09-14T11:48:39;19.40;46.40
21682;DHT22;11002;48.256;10.084;2022-09-14T11:51:11;19.40;46.40
21682;DHT22;11002;48.256;10.084;2022-09-14T11:53:43;19.40;46.40
21682;DHT22;11002;48.256;10.084;2022-09-14T11:56:21;19.40;46.40
21682;DHT22;11002;48.256;10.084;2022-09-14T11:58:53;19.40;46.40
21682;DHT22;11002;48.256;10.084;2022-09-14T12:01:30;19.40;46.30
21682;DHT22;11002;48.256;10.084;2022-09-14T12:04:08;19.40;46.30
21682;DHT22;11002;48.256;10.084;2022-09-14T12:06:53;19.40;46.30
21682;DHT22;11002;48.256;10.084;2022-09-14T12:09:46;19.40;46.40
21682;DHT22;11002;48.256;10.084;2022-09-14T12:12:32;19.40;46.40
21682;DHT22;11002;48.256;10.084;2022-09-14T12:15:03;19.40;46.40
21682;DHT22;11002;48.256;10.084;2022-09-14T12:17:37;19.40;46.30
21682;DHT22;11002;48.256;10.084;2022-09-14T12:20:41;19.40;47.00
21682;DHT22;11002;48.256;10.084;2022-09-14T12:23:21;19.40;46.40
21682;DHT22;11002;48.256;10.084;2022-09-14T12:25:59;19.40;46.40
21682;DHT22;11002;48.256;10.084;2022-09-14T12:28:39;19.40;46.40
21682;DHT22;11002;48.256;10.084;2022-09-14T12:31:29;19.40;46.40
21682;DHT22;11002;48.256;10.084;2022-09-14T12:34:15;19.40;46.40
21682;DHT22;11002;48.256;10.084;2022-09-14T12:36:59;19.40;46.40
21682;DHT22;11002;48.256;10.084;2022-09-14T12:39:28;19.40;46.40
21682;DHT22;11002;48.256;10.084;2022-09-14T12:42:00;19.40;46.40
21682;DHT22;11002;48.256;10.084;2022-09-14T12:44:31;19.30;46.40
21682;DHT22;11002;48.256;10.084;2022-09-14T12:50:22;19.40;46.60
21682;DHT22;11002;48.256;10.084;2022-09-14T12:53:06;19.30;46.40
21682;DHT22;11002;48.256;10.084;2022-09-14T12:55:57;19.40;46.40
21682;DHT22;11002;48.256;10.084;2022-09-14T12:58:46;19.40;46.60
21682;DHT22;11002;48.256;10.084;2022-09-14T13:01:24;19.30;46.40
21682;DHT22;11002;48.256;10.084;2022-09-14T13:03:54;19.30;46.50
21682;DHT22;11002;48.256;10.084;2022-09-14T13:06:23;19.30;46.40
21682;DHT22;11002;48.256;10.084;2022-09-14T13:08:54;19.40;46.60
21682;DHT22;11002;48.256;10.084;2022-09-14T13:11:27;19.30;46.40
21682;DHT22;11002;48.256;10.084;2022-09-14T13:13:59;19.30;46.50
21682;DHT22;11002;48.256;10.084;2022-09-14T13:16:36;19.30;46.60
21682;DHT22;11002;48.256;10.084;2022-09-14T13:19:15;19.30;46.60
21682;DHT22;11002;48.256;10.084;2022-09-14T13:21:45;19.30;46.80
21682;DHT22;11002;48.256;10.084;2022-09-14T13:24:26;19.30;46.80
21682;DHT22;11002;48.256;10.084;2022-09-14T13:26:56;19.40;46.90
21682;DHT22;11002;48.256;10.084;2022-09-14T13:29:25;19.40;46.90
21682;DHT22;11002;48.256;10.084;2022-09-14T13:31:55;19.40;46.90
21682;DHT22;11002;48.256;10.084;2022-09-14T13:34:24;19.40;46.90
21682;DHT22;11002;48.256;10.084;2022-09-14T13:36:54;19.40;46.90
21682;DHT22;11002;48.256;10.084;2022-09-14T13:39:28;19.40;46.90
21682;DHT22;11002;48.256;10.084;2022-09-14T13:41:56;19.40;46.80
21682;DHT22;11002;48.256;10.084;2022-09-14T13:44:28;19.40;46.80
21682;DHT22;11002;48.256;10.084;2022-09-14T13:46:58;19.40;46.60
21682;DHT22;11002;48.256;10.084;2022-09-14T13:49:27;19.40;46.70
21682;DHT22;11002;48.256;10.084;2022-09-14T13:52:15;19.40;46.90
21682;DHT22;11002;48.256;10.084;2022-09-14T13:54:44;19.40;46.80
21682;DHT22;11002;48.256;10.084;2022-09-14T13:57:12;19.40;46.70
21682;DHT22;11002;48.256;10.084;2022-09-14T14:00:10;19.40;46.80
21682;DHT22;11002;48.256;10.084;2022-09-14T14:02:44;19.40;46.80
21682;DHT22;11002;48.256;10.084;2022-09-14T14:05:24;19.40;46.80
21682;DHT22;11002;48.256;10.084;2022-09-14T14:07:53;19.40;46.70
21682;DHT22;11002;48.256;10.084;2022-09-14T14:10:24;19.40;46.80
21682;DHT22;11002;48.256;10.084;2022-09-14T14:12:52;19.40;46.80
21682;DHT22;11002;48.256;10.084;2022-09-14T14:15:37;19.40;46.80
21682;DHT22;11002;48.256;10.084;2022-09-14T14:18:38;19.40;46.80
21682;DHT22;11002;48.256;10.084;2022-09-14T14:21:14;19.40;46.80
21682;DHT22;11002;48.256;10.084;2022-09-14T14:23:42;19.40;46.70
21682;DHT22;11002;48.256;10.084;2022-09-14T14:26:12;19.40;46.70
21682;DHT22;11002;48.256;10.084;2022-09-14T14:28:41;19.40;46.80
21682;DHT22;11002;48.256;10.084;2022-09-14T14:31:15;19.40;46.80
21682;DHT22;11002;48.256;10.084;2022-09-14T14:33:46;19.40;46.80
21682;DHT22;11002;48.256;10.084;2022-09-14T14:36:14;19.40;46.70
21682;DHT22;11002;48.256;10.084;2022-09-14T14:38:42;19.40;46.80
21682;DHT22;11002;48.256;10.084;2022-09-14T14:41:13;19.40;46.70
21682;DHT22;11002;48.256;10.084;2022-09-14T14:43:42;19.40;46.60
21682;DHT22;11002;48.256;10.084;2022-09-14T14:46:12;19.40;46.70
21682;DHT22;11002;48.256;10.084;2022-09-14T14:48:41;19.40;46.70
21682;DHT22;11002;48.256;10.084;2022-09-14T14:51:11;19.40;46.70
21682;DHT22;11002;48.256;10.084;2022-09-14T14:53:40;19.40;46.70
21682;DHT22;11002;48.256;10.084;2022-09-14T14:56:09;19.40;46.60
21682;DHT22;11002;48.256;10.084;2022-09-14T14:58:42;19.40;46.60
21682;DHT22;11002;48.256;10.084;2022-09-14T15:01:10;19.40;46.70
21682;DHT22;11002;48.256;10.084;2022-09-14T15:03:39;19.40;46.60
21682;DHT22;11002;48.256;10.084;2022-09-14T15:06:14;19.40;46.70
21682;DHT22;11002;48.256;10.084;2022-09-14T15:08:44;19.40;46.60
21682;DHT22;11002;48.256;10.084;2022-09-14T15:11:14;19.40;46.60
21682;DHT22;11002;48.256;10.084;2022-09-14T15:13:43;19.40;46.60
21682;DHT22;11002;48.256;10.084;2022-09-14T15:16:11;19.40;46.60
21682;DHT22;11002;48.256;10.084;2022-09-14T15:18:40;19.40;46.60
21682;DHT22;11002;48.256;10.084;2022-09-14T15:21:08;19.40;46.60
21682;DHT22;11002;48.256;10.084;2022-09-14T15:23:35;19.40;46.60
21682;DHT22;11002;48.256;10.084;2022-09-14T15:26:03;19.40;46.60
21682;DHT22;11002;48.256;10.084;2022-09-14T15:28:30;19.40;46.60
21682;DHT22;11002;48.256;10.084;2022-09-14T15:31:00;19.40;46.70
21682;DHT22;11002;48.256;10.084;2022-09-14T15:33:28;19.40;46.70
21682;DHT22;11002;48.256;10.084;2022-09-14T15:35:56;19.40;46.70
21682;DHT22;11002;48.256;10.084;2022-09-14T15:38:24;19.40;46.60
21682;DHT22;11002;48.256;10.084;2022-09-14T15:40:51;19.40;46.60
21682;DHT22;11002;48.256;10.084;2022-09-14T15:43:19;19.40;46.60
21682;DHT22;11002;48.256;10.084;2022-09-14T15:45:46;19.40;46.60
21682;DHT22;11002;48.256;10.084;2022-09-14T15:48:14;19.40;46.60